sensor_id;sensor_type;location;lat;lon;timestamp;P1;durP1;ratioP1;P2;durP2;ratioP2
55762;SDS011;42162;51.958;5.426;2023-09-12T00:01:13;27.48;;;23.00;;
55762;SDS011;42162;51.958;5.426;2023-09-12T00:03:40;27.38;;;22.95;;
55762;SDS011;42162;51.958;5.426;2023-09-12T00:06:07;28.30;;;23.73;;
55762;SDS011;42162;51.958;5.426;2023-09-12T00:08:34;33.15;;;24.88;;
55762;SDS011;42162;51.958;5.426;2023-09-12T00:11:08;33.40;;;22.88;;
55762;SDS011;42162;51.958;5.426;2023-09-12T00:13:38;28.70;;;23.17;;
55762;SDS011;42162;51.958;5.426;2023-09-12T00:16:06;31.20;;;24.08;;
55762;SDS011;42162;51.958;5.426;2023-09-12T00:18:37;29.52;;;23.33;;
55762;SDS011;42162;51.958;5.426;2023-09-12T00:21:05;29.30;;;23.60;;
55762;SDS011;42162;51.958;5.426;2023-09-12T00:23:33;28.05;;;22.98;;
55762;SDS011;42162;51.958;5.426;2023-09-12T00:26:00;30.40;;;22.88;;
55762;SDS011;42162;51.958;5.426;2023-09-12T00:28:27;29.65;;;22.23;;
55762;SDS011;42162;51.958;5.426;2023-09-12T00:30:54;29.48;;;22.73;;
55762;SDS011;42162;51.958;5.426;2023-09-12T00:33:22;31.30;;;23.65;;
55762;SDS011;42162;51.958;5.426;2023-09-12T00:35:50;26.38;;;22.55;;
55762;SDS011;42162;51.958;5.426;2023-09-12T00:38:18;26.60;;;21.70;;
55762;SDS011;42162;51.958;5.426;2023-09-12T00:40:45;25.33;;;21.27;;
55762;SDS011;42162;51.958;5.426;2023-09-12T00:43:12;28.13;;;19.98;;
55762;SDS011;42162;51.958;5.426;2023-09-12T00:45:39;25.13;;;19.73;;
55762;SDS011;42162;51.958;5.426;2023-09-12T00:48:08;26.40;;;20.73;;
55762;SDS011;42162;51.958;5.426;2023-09-12T00:50:36;29.92;;;20.67;;
55762;SDS011;42162;51.958;5.426;2023-09-12T00:53:04;27.55;;;21.15;;
55762;SDS011;42162;51.958;5.426;2023-09-12T00:55:32;40.22;;;23.23;;
55762;SDS011;42162;51.958;5.426;2023-09-12T00:58:03;23.98;;;18.73;;
55762;SDS011;42162;51.958;5.426;2023-09-12T01:00:30;29.67;;;21.92;;
55762;SDS011;42162;51.958;5.426;2023-09-12T01:02:57;27.50;;;22.10;;
55762;SDS011;42162;51.958;5.426;2023-09-12T01:08:35;27.67;;;22.00;;
55762;SDS011;42162;51.958;5.426;2023-09-12T01:11:05;39.08;;;21.50;;
55762;SDS011;42162;51.958;5.426;2023-09-12T01:13:32;29.60;;;21.67;;
55762;SDS011;42162;51.958;5.426;2023-09-12T01:15:59;28.05;;;21.20;;
55762;SDS011;42162;51.958;5.426;2023-09-12T01:18:26;24.35;;;19.70;;
55762;SDS011;42162;51.958;5.426;2023-09-12T01:26:41;20.10;;;17.25;;
55762;SDS011;42162;51.958;5.426;2023-09-12T01:29:15;21.25;;;19.05;;
55762;SDS011;42162;51.958;5.426;2023-09-12T01:31:44;19.98;;;17.88;;
55762;SDS011;42162;51.958;5.426;2023-09-12T01:34:14;19.30;;;17.08;;
55762;SDS011;42162;51.958;5.426;2023-09-12T01:36:41;22.75;;;19.88;;
55762;SDS011;42162;51.958;5.426;2023-09-12T01:39:08;25.90;;;19.33;;
55762;SDS011;42162;51.958;5.426;2023-09-12T01:41:37;20.67;;;18.48;;
55762;SDS011;42162;51.958;5.426;2023-09-12T01:44:07;22.55;;;19.20;;
55762;SDS011;42162;51.958;5.426;2023-09-12T01:46:36;21.13;;;17.88;;
55762;SDS011;42162;51.958;5.426;2023-09-12T01:49:07;21.38;;;18.52;;
55762;SDS011;42162;51.958;5.426;2023-09-12T01:51:36;19.60;;;17.40;;
55762;SDS011;42162;51.958;5.426;2023-09-12T01:54:03;16.30;;;14.18;;
55762;SDS011;42162;51.958;5.426;2023-09-12T01:56:32;15.40;;;12.55;;
55762;SDS011;42162;51.958;5.426;2023-09-12T01:59:00;14.23;;;10.48;;
55762;SDS011;42162;51.958;5.426;2023-09-12T02:01:28;10.75;;;9.55;;
55762;SDS011;42162;51.958;5.426;2023-09-12T02:03:57;12.15;;;9.80;;
55762;SDS011;42162;51.958;5.426;2023-09-12T02:06:24;17.00;;;15.20;;
55762;SDS011;42162;51.958;5.426;2023-09-12T02:08:51;16.85;;;13.88;;
55762;SDS011;42162;51.958;5.426;2023-09-12T02:11:18;17.90;;;12.77;;
55762;SDS011;42162;51.958;5.426;2023-09-12T02:13:45;15.38;;;11.95;;
55762;SDS011;42162;51.958;5.426;2023-09-12T02:16:12;12.05;;;9.80;;
55762;SDS011;42162;51.958;5.426;2023-09-12T02:18:40;12.55;;;9.63;;
55762;SDS011;42162;51.958;5.426;2023-09-12T02:21:07;14.73;;;11.95;;
55762;SDS011;42162;51.958;5.426;2023-09-12T02:23:34;13.65;;;11.95;;
55762;SDS011;42162;51.958;5.426;2023-09-12T02:26:01;16.45;;;14.65;;
55762;SDS011;42162;51.958;5.426;2023-09-12T02:28:29;19.15;;;15.80;;
55762;SDS011;42162;51.958;5.426;2023-09-12T02:30:56;16.15;;;13.77;;
55762;SDS011;42162;51.958;5.426;2023-09-12T02:33:24;14.75;;;10.90;;
55762;SDS011;42162;51.958;5.426;2023-09-12T02:35:51;16.27;;;13.38;;
55762;SDS011;42162;51.958;5.426;2023-09-12T02:38:18;26.48;;;15.63;;
55762;SDS011;42162;51.958;5.426;2023-09-12T02:40:45;28.52;;;13.55;;
55762;SDS011;42162;51.958;5.426;2023-09-12T02:43:12;102.32;;;13.57;;
55762;SDS011;42162;51.958;5.426;2023-09-12T02:45:39;60.22;;;11.75;;
55762;SDS011;42162;51.958;5.426;2023-09-12T02:48:06;254.55;;;12.18;;
55762;SDS011;42162;51.958;5.426;2023-09-12T02:50:36;55.90;;;10.38;;
55762;SDS011;42162;51.958;5.426;2023-09-12T02:53:03;57.70;;;9.75;;
55762;SDS011;42162;51.958;5.426;2023-09-12T02:55:30;21.52;;;9.88;;
55762;SDS011;42162;51.958;5.426;2023-09-12T02:57:57;14.75;;;8.43;;
55762;SDS011;42162;51.958;5.426;2023-09-12T03:00:24;12.02;;;10.15;;
55762;SDS011;42162;51.958;5.426;2023-09-12T03:02:51;11.20;;;9.98;;
55762;SDS011;42162;51.958;5.426;2023-09-12T03:05:18;9.85;;;8.85;;
55762;SDS011;42162;51.958;5.426;2023-09-12T03:07:45;12.27;;;9.05;;
55762;SDS011;42162;51.958;5.426;2023-09-12T03:10:12;13.00;;;10.50;;
55762;SDS011;42162;51.958;5.426;2023-09-12T03:12:40;10.98;;;9.88;;
55762;SDS011;42162;51.958;5.426;2023-09-12T03:15:08;12.18;;;9.68;;
55762;SDS011;42162;51.958;5.426;2023-09-12T03:17:37;10.13;;;9.13;;
55762;SDS011;42162;51.958;5.426;2023-09-12T03:20:04;9.70;;;8.70;;
55762;SDS011;42162;51.958;5.426;2023-09-12T03:22:36;12.40;;;9.35;;
55762;SDS011;42162;51.958;5.426;2023-09-12T03:25:05;97.78;;;8.57;;
55762;SDS011;42162;51.958;5.426;2023-09-12T03:27:33;11.77;;;7.63;;
55762;SDS011;42162;51.958;5.426;2023-09-12T03:30:00;13.10;;;9.57;;
55762;SDS011;42162;51.958;5.426;2023-09-12T03:32:27;13.73;;;9.70;;
55762;SDS011;42162;51.958;5.426;2023-09-12T03:34:54;10.45;;;8.95;;
55762;SDS011;42162;51.958;5.426;2023-09-12T03:37:21;12.88;;;10.13;;
55762;SDS011;42162;51.958;5.426;2023-09-12T03:39:48;15.57;;;10.63;;
55762;SDS011;42162;51.958;5.426;2023-09-12T03:42:16;10.32;;;9.25;;
55762;SDS011;42162;51.958;5.426;2023-09-12T03:44:43;10.65;;;9.52;;
55762;SDS011;42162;51.958;5.426;2023-09-12T03:47:10;12.50;;;10.57;;
55762;SDS011;42162;51.958;5.426;2023-09-12T03:49:37;10.18;;;7.72;;
55762;SDS011;42162;51.958;5.426;2023-09-12T03:52:04;12.05;;;7.85;;
55762;SDS011;42162;51.958;5.426;2023-09-12T03:54:32;11.60;;;9.65;;
55762;SDS011;42162;51.958;5.426;2023-09-12T03:56:59;16.77;;;9.75;;
55762;SDS011;42162;51.958;5.426;2023-09-12T03:59:26;18.85;;;11.25;;
55762;SDS011;42162;51.958;5.426;2023-09-12T04:01:53;15.43;;;10.95;;
55762;SDS011;42162;51.958;5.426;2023-09-12T04:04:21;18.08;;;14.15;;
55762;SDS011;42162;51.958;5.426;2023-09-12T04:06:48;20.88;;;17.20;;
55762;SDS011;42162;51.958;5.426;2023-09-12T04:09:15;19.42;;;16.50;;
55762;SDS011;42162;51.958;5.426;2023-09-12T04:11:43;20.20;;;16.30;;
55762;SDS011;42162;51.958;5.426;2023-09-12T04:14:14;23.88;;;17.02;;
55762;SDS011;42162;51.958;5.426;2023-09-12T04:16:41;26.33;;;21.02;;
55762;SDS011;42162;51.958;5.426;2023-09-12T04:19:08;30.10;;;20.83;;
55762;SDS011;42162;51.958;5.426;2023-09-12T04:21:37;22.42;;;19.00;;
55762;SDS011;42162;51.958;5.426;2023-09-12T04:24:04;24.60;;;19.30;;
55762;SDS011;42162;51.958;5.426;2023-09-12T04:26:32;21.02;;;18.48;;
55762;SDS011;42162;51.958;5.426;2023-09-12T04:28:59;24.85;;;18.25;;
55762;SDS011;42162;51.958;5.426;2023-09-12T04:31:26;23.23;;;19.60;;
55762;SDS011;42162;51.958;5.426;2023-09-12T04:33:53;21.17;;;18.90;;
55762;SDS011;42162;51.958;5.426;2023-09-12T04:36:20;20.67;;;17.52;;
55762;SDS011;42162;51.958;5.426;2023-09-12T04:38:48;22.95;;;20.48;;
55762;SDS011;42162;51.958;5.426;2023-09-12T04:41:15;23.67;;;19.92;;
55762;SDS011;42162;51.958;5.426;2023-09-12T04:43:44;20.55;;;18.17;;
55762;SDS011;42162;51.958;5.426;2023-09-12T04:46:11;24.10;;;20.42;;
55762;SDS011;42162;51.958;5.426;2023-09-12T04:48:38;30.27;;;19.70;;
55762;SDS011;42162;51.958;5.426;2023-09-12T04:51:06;20.55;;;18.17;;
55762;SDS011;42162;51.958;5.426;2023-09-12T04:53:34;32.22;;;18.40;;
55762;SDS011;42162;51.958;5.426;2023-09-12T04:56:03;18.20;;;16.38;;
55762;SDS011;42162;51.958;5.426;2023-09-12T04:58:30;14.32;;;12.82;;
55762;SDS011;42162;51.958;5.426;2023-09-12T05:00:57;30.38;;;17.20;;
55762;SDS011;42162;51.958;5.426;2023-09-12T05:03:25;24.85;;;16.45;;
55762;SDS011;42162;51.958;5.426;2023-09-12T05:05:53;42.05;;;18.95;;
55762;SDS011;42162;51.958;5.426;2023-09-12T05:08:20;27.98;;;15.57;;
55762;SDS011;42162;51.958;5.426;2023-09-12T05:10:47;22.45;;;16.63;;
55762;SDS011;42162;51.958;5.426;2023-09-12T05:13:15;19.55;;;15.75;;
55762;SDS011;42162;51.958;5.426;2023-09-12T05:15:43;28.23;;;16.48;;
55762;SDS011;42162;51.958;5.426;2023-09-12T05:18:10;19.75;;;16.35;;
55762;SDS011;42162;51.958;5.426;2023-09-12T05:20:40;42.92;;;14.95;;
55762;SDS011;42162;51.958;5.426;2023-09-12T05:23:10;16.73;;;15.07;;
55762;SDS011;42162;51.958;5.426;2023-09-12T05:25:38;21.88;;;14.65;;
55762;SDS011;42162;51.958;5.426;2023-09-12T05:28:05;16.52;;;14.70;;
55762;SDS011;42162;51.958;5.426;2023-09-12T05:30:32;39.78;;;14.88;;
55762;SDS011;42162;51.958;5.426;2023-09-12T05:33:00;39.55;;;15.57;;
55762;SDS011;42162;51.958;5.426;2023-09-12T05:35:27;22.55;;;15.02;;
55762;SDS011;42162;51.958;5.426;2023-09-12T05:37:54;25.67;;;15.13;;
55762;SDS011;42162;51.958;5.426;2023-09-12T05:40:22;15.82;;;14.20;;
55762;SDS011;42162;51.958;5.426;2023-09-12T05:42:49;70.15;;;15.68;;
55762;SDS011;42162;51.958;5.426;2023-09-12T05:45:16;29.60;;;14.18;;
55762;SDS011;42162;51.958;5.426;2023-09-12T05:47:43;14.50;;;13.00;;
55762;SDS011;42162;51.958;5.426;2023-09-12T05:50:11;21.25;;;13.82;;
55762;SDS011;42162;51.958;5.426;2023-09-12T05:52:38;16.30;;;14.52;;
55762;SDS011;42162;51.958;5.426;2023-09-12T05:55:05;13.27;;;11.88;;
55762;SDS011;42162;51.958;5.426;2023-09-12T05:57:33;14.07;;;11.65;;
55762;SDS011;42162;51.958;5.426;2023-09-12T06:00:01;14.27;;;12.77;;
55762;SDS011;42162;51.958;5.426;2023-09-12T06:02:38;17.67;;;12.77;;
55762;SDS011;42162;51.958;5.426;2023-09-12T06:05:06;13.30;;;11.90;;
55762;SDS011;42162;51.958;5.426;2023-09-12T06:07:33;11.80;;;10.73;;
55762;SDS011;42162;51.958;5.426;2023-09-12T06:10:01;12.60;;;11.38;;
55762;SDS011;42162;51.958;5.426;2023-09-12T06:12:28;14.55;;;13.15;;
55762;SDS011;42162;51.958;5.426;2023-09-12T06:14:55;14.52;;;13.13;;
55762;SDS011;42162;51.958;5.426;2023-09-12T06:17:22;15.20;;;13.68;;
55762;SDS011;42162;51.958;5.426;2023-09-12T06:19:49;14.77;;;13.32;;
55762;SDS011;42162;51.958;5.426;2023-09-12T06:22:17;18.67;;;14.85;;
55762;SDS011;42162;51.958;5.426;2023-09-12T06:24:44;21.40;;;16.50;;
55762;SDS011;42162;51.958;5.426;2023-09-12T06:27:11;18.60;;;16.65;;
55762;SDS011;42162;51.958;5.426;2023-09-12T06:29:46;20.40;;;18.05;;
55762;SDS011;42162;51.958;5.426;2023-09-12T06:32:15;21.55;;;18.25;;
55762;SDS011;42162;51.958;5.426;2023-09-12T06:34:42;20.98;;;18.23;;
55762;SDS011;42162;51.958;5.426;2023-09-12T06:37:12;19.38;;;16.85;;
55762;SDS011;42162;51.958;5.426;2023-09-12T06:39:40;23.40;;;19.02;;
55762;SDS011;42162;51.958;5.426;2023-09-12T06:42:07;23.02;;;19.73;;
55762;SDS011;42162;51.958;5.426;2023-09-12T06:44:35;21.40;;;17.83;;
55762;SDS011;42162;51.958;5.426;2023-09-12T06:47:05;24.27;;;19.58;;
55762;SDS011;42162;51.958;5.426;2023-09-12T06:49:32;22.58;;;17.35;;
55762;SDS011;42162;51.958;5.426;2023-09-12T06:52:01;27.70;;;19.90;;
55762;SDS011;42162;51.958;5.426;2023-09-12T06:54:29;23.63;;;19.33;;
55762;SDS011;42162;51.958;5.426;2023-09-12T06:56:56;26.13;;;20.10;;
55762;SDS011;42162;51.958;5.426;2023-09-12T06:59:23;23.85;;;19.08;;
55762;SDS011;42162;51.958;5.426;2023-09-12T07:01:50;23.67;;;17.98;;
55762;SDS011;42162;51.958;5.426;2023-09-12T07:04:17;24.08;;;19.23;;
55762;SDS011;42162;51.958;5.426;2023-09-12T07:06:44;26.30;;;17.95;;
55762;SDS011;42162;51.958;5.426;2023-09-12T07:09:11;27.55;;;20.27;;
55762;SDS011;42162;51.958;5.426;2023-09-12T07:11:41;23.23;;;18.08;;
55762;SDS011;42162;51.958;5.426;2023-09-12T07:14:09;21.25;;;18.13;;
55762;SDS011;42162;51.958;5.426;2023-09-12T07:16:36;26.70;;;18.75;;
55762;SDS011;42162;51.958;5.426;2023-09-12T07:19:04;21.60;;;16.65;;
55762;SDS011;42162;51.958;5.426;2023-09-12T07:21:31;24.52;;;18.20;;
55762;SDS011;42162;51.958;5.426;2023-09-12T07:23:59;23.30;;;17.77;;
55762;SDS011;42162;51.958;5.426;2023-09-12T07:26:26;22.90;;;18.77;;
55762;SDS011;42162;51.958;5.426;2023-09-12T07:28:54;24.23;;;18.65;;
55762;SDS011;42162;51.958;5.426;2023-09-12T07:31:21;22.52;;;17.20;;
55762;SDS011;42162;51.958;5.426;2023-09-12T07:33:48;23.50;;;17.95;;
55762;SDS011;42162;51.958;5.426;2023-09-12T07:36:15;25.42;;;18.70;;
55762;SDS011;42162;51.958;5.426;2023-09-12T07:38:42;21.88;;;18.50;;
55762;SDS011;42162;51.958;5.426;2023-09-12T07:41:12;22.80;;;17.60;;
55762;SDS011;42162;51.958;5.426;2023-09-12T07:43:39;27.77;;;19.13;;
55762;SDS011;42162;51.958;5.426;2023-09-12T07:46:07;21.48;;;17.20;;
55762;SDS011;42162;51.958;5.426;2023-09-12T07:48:34;23.90;;;17.75;;
55762;SDS011;42162;51.958;5.426;2023-09-12T07:51:10;24.13;;;18.25;;
55762;SDS011;42162;51.958;5.426;2023-09-12T07:53:38;23.33;;;17.35;;
55762;SDS011;42162;51.958;5.426;2023-09-12T07:56:06;26.58;;;17.60;;
55762;SDS011;42162;51.958;5.426;2023-09-12T07:58:33;27.08;;;18.58;;
55762;SDS011;42162;51.958;5.426;2023-09-12T08:01:04;23.17;;;17.63;;
55762;SDS011;42162;51.958;5.426;2023-09-12T08:03:35;26.73;;;19.27;;
55762;SDS011;42162;51.958;5.426;2023-09-12T08:06:04;26.67;;;18.17;;
55762;SDS011;42162;51.958;5.426;2023-09-12T08:08:31;24.52;;;19.55;;
55762;SDS011;42162;51.958;5.426;2023-09-12T08:10:58;25.60;;;19.15;;
55762;SDS011;42162;51.958;5.426;2023-09-12T08:13:25;24.40;;;21.58;;
55762;SDS011;42162;51.958;5.426;2023-09-12T08:15:54;33.50;;;22.25;;
55762;SDS011;42162;51.958;5.426;2023-09-12T08:18:26;31.98;;;23.52;;
55762;SDS011;42162;51.958;5.426;2023-09-12T08:20:56;28.13;;;23.75;;
55762;SDS011;42162;51.958;5.426;2023-09-12T08:23:23;29.85;;;23.65;;
55762;SDS011;42162;51.958;5.426;2023-09-12T08:25:50;29.08;;;24.05;;
55762;SDS011;42162;51.958;5.426;2023-09-12T08:28:18;30.90;;;24.08;;
55762;SDS011;42162;51.958;5.426;2023-09-12T08:30:45;32.97;;;23.90;;
55762;SDS011;42162;51.958;5.426;2023-09-12T08:33:13;34.38;;;26.40;;
55762;SDS011;42162;51.958;5.426;2023-09-12T08:35:40;34.30;;;24.35;;
55762;SDS011;42162;51.958;5.426;2023-09-12T08:38:07;37.40;;;26.05;;
55762;SDS011;42162;51.958;5.426;2023-09-12T08:40:35;32.05;;;24.52;;
55762;SDS011;42162;51.958;5.426;2023-09-12T08:43:02;33.90;;;24.77;;
55762;SDS011;42162;51.958;5.426;2023-09-12T08:45:33;34.03;;;26.27;;
55762;SDS011;42162;51.958;5.426;2023-09-12T08:48:03;37.28;;;25.83;;
55762;SDS011;42162;51.958;5.426;2023-09-12T08:50:31;35.30;;;24.65;;
55762;SDS011;42162;51.958;5.426;2023-09-12T08:53:00;29.67;;;22.13;;
55762;SDS011;42162;51.958;5.426;2023-09-12T08:55:34;29.40;;;21.85;;
55762;SDS011;42162;51.958;5.426;2023-09-12T08:58:04;32.50;;;22.88;;
55762;SDS011;42162;51.958;5.426;2023-09-12T09:00:32;29.55;;;20.63;;
55762;SDS011;42162;51.958;5.426;2023-09-12T09:03:00;27.38;;;20.73;;
55762;SDS011;42162;51.958;5.426;2023-09-12T09:05:29;27.30;;;18.95;;
55762;SDS011;42162;51.958;5.426;2023-09-12T09:07:57;27.48;;;22.13;;
55762;SDS011;42162;51.958;5.426;2023-09-12T09:10:25;27.35;;;19.50;;
55762;SDS011;42162;51.958;5.426;2023-09-12T09:13:16;22.50;;;18.35;;
55762;SDS011;42162;51.958;5.426;2023-09-12T09:15:44;25.77;;;19.83;;
55762;SDS011;42162;51.958;5.426;2023-09-12T09:18:11;22.10;;;19.10;;
55762;SDS011;42162;51.958;5.426;2023-09-12T09:20:39;27.40;;;20.08;;
55762;SDS011;42162;51.958;5.426;2023-09-12T09:23:09;23.08;;;18.45;;
55762;SDS011;42162;51.958;5.426;2023-09-12T09:25:41;27.55;;;19.23;;
55762;SDS011;42162;51.958;5.426;2023-09-12T09:28:16;22.02;;;18.70;;
55762;SDS011;42162;51.958;5.426;2023-09-12T09:30:45;23.85;;;18.73;;
55762;SDS011;42162;51.958;5.426;2023-09-12T09:33:13;21.95;;;18.63;;
55762;SDS011;42162;51.958;5.426;2023-09-12T09:35:41;22.45;;;18.30;;
55762;SDS011;42162;51.958;5.426;2023-09-12T09:38:09;23.95;;;17.08;;
55762;SDS011;42162;51.958;5.426;2023-09-12T09:40:36;21.23;;;15.75;;
55762;SDS011;42162;51.958;5.426;2023-09-12T09:43:03;20.38;;;16.08;;
55762;SDS011;42162;51.958;5.426;2023-09-12T09:45:31;21.42;;;15.90;;
55762;SDS011;42162;51.958;5.426;2023-09-12T09:48:05;20.30;;;16.02;;
55762;SDS011;42162;51.958;5.426;2023-09-12T09:50:34;22.30;;;18.65;;
55762;SDS011;42162;51.958;5.426;2023-09-12T09:53:04;22.92;;;18.23;;
55762;SDS011;42162;51.958;5.426;2023-09-12T09:55:35;23.63;;;19.35;;
55762;SDS011;42162;51.958;5.426;2023-09-12T09:58:02;25.38;;;20.10;;
55762;SDS011;42162;51.958;5.426;2023-09-12T10:00:36;24.15;;;19.92;;
55762;SDS011;42162;51.958;5.426;2023-09-12T10:03:04;21.83;;;17.10;;
55762;SDS011;42162;51.958;5.426;2023-09-12T10:05:34;26.13;;;19.92;;
55762;SDS011;42162;51.958;5.426;2023-09-12T10:08:06;28.40;;;21.98;;
55762;SDS011;42162;51.958;5.426;2023-09-12T10:10:37;28.38;;;20.50;;
55762;SDS011;42162;51.958;5.426;2023-09-12T10:13:05;27.83;;;21.67;;
55762;SDS011;42162;51.958;5.426;2023-09-12T10:15:33;26.90;;;20.45;;
55762;SDS011;42162;51.958;5.426;2023-09-12T10:18:04;25.60;;;19.88;;
55762;SDS011;42162;51.958;5.426;2023-09-12T10:20:53;22.30;;;16.60;;
55762;SDS011;42162;51.958;5.426;2023-09-12T10:23:30;21.08;;;16.42;;
55762;SDS011;42162;51.958;5.426;2023-09-12T10:26:12;21.08;;;15.77;;
55762;SDS011;42162;51.958;5.426;2023-09-12T10:28:40;23.13;;;16.67;;
55762;SDS011;42162;51.958;5.426;2023-09-12T10:31:09;26.92;;;21.15;;
55762;SDS011;42162;51.958;5.426;2023-09-12T10:33:39;27.05;;;20.65;;
55762;SDS011;42162;51.958;5.426;2023-09-12T10:36:08;26.80;;;21.48;;
55762;SDS011;42162;51.958;5.426;2023-09-12T10:38:38;27.83;;;21.42;;
55762;SDS011;42162;51.958;5.426;2023-09-12T10:41:13;30.10;;;21.33;;
55762;SDS011;42162;51.958;5.426;2023-09-12T10:43:42;32.88;;;18.92;;
55762;SDS011;42162;51.958;5.426;2023-09-12T10:46:16;24.80;;;20.20;;
55762;SDS011;42162;51.958;5.426;2023-09-12T10:48:44;25.80;;;20.75;;
55762;SDS011;42162;51.958;5.426;2023-09-12T10:51:11;23.63;;;19.38;;
55762;SDS011;42162;51.958;5.426;2023-09-12T10:53:46;27.90;;;20.85;;
55762;SDS011;42162;51.958;5.426;2023-09-12T10:56:20;26.23;;;19.42;;
55762;SDS011;42162;51.958;5.426;2023-09-12T11:01:31;26.40;;;19.55;;
55762;SDS011;42162;51.958;5.426;2023-09-12T11:04:05;31.73;;;20.85;;
55762;SDS011;42162;51.958;5.426;2023-09-12T11:06:46;27.13;;;19.52;;
55762;SDS011;42162;51.958;5.426;2023-09-12T11:14:20;19.40;;;16.23;;
55762;SDS011;42162;51.958;5.426;2023-09-12T11:17:19;26.70;;;19.33;;
55762;SDS011;42162;51.958;5.426;2023-09-12T11:19:48;25.48;;;19.67;;
55762;SDS011;42162;51.958;5.426;2023-09-12T11:22:27;24.48;;;19.60;;
55762;SDS011;42162;51.958;5.426;2023-09-12T11:24:55;26.55;;;17.98;;
55762;SDS011;42162;51.958;5.426;2023-09-12T11:27:24;21.23;;;16.67;;
55762;SDS011;42162;51.958;5.426;2023-09-12T11:30:06;25.15;;;20.20;;
55762;SDS011;42162;51.958;5.426;2023-09-12T11:32:35;29.23;;;21.83;;
55762;SDS011;42162;51.958;5.426;2023-09-12T11:35:06;22.52;;;17.08;;
55762;SDS011;42162;51.958;5.426;2023-09-12T11:37:34;24.10;;;18.35;;
55762;SDS011;42162;51.958;5.426;2023-09-12T11:42:40;22.38;;;15.10;;
55762;SDS011;42162;51.958;5.426;2023-09-12T11:45:18;18.42;;;14.82;;
55762;SDS011;42162;51.958;5.426;2023-09-12T11:47:46;14.77;;;12.45;;
55762;SDS011;42162;51.958;5.426;2023-09-12T11:50:27;22.35;;;17.42;;
55762;SDS011;42162;51.958;5.426;2023-09-12T11:58:14;19.80;;;15.43;;
55762;SDS011;42162;51.958;5.426;2023-09-12T12:00:47;24.70;;;17.83;;
55762;SDS011;42162;51.958;5.426;2023-09-12T12:03:18;21.27;;;16.25;;
55762;SDS011;42162;51.958;5.426;2023-09-12T12:05:47;19.98;;;16.42;;
55762;SDS011;42162;51.958;5.426;2023-09-12T12:08:15;15.45;;;12.55;;
55762;SDS011;42162;51.958;5.426;2023-09-12T12:10:53;22.73;;;16.55;;
55762;SDS011;42162;51.958;5.426;2023-09-12T12:13:21;17.50;;;13.27;;
55762;SDS011;42162;51.958;5.426;2023-09-12T12:15:50;19.58;;;13.80;;
55762;SDS011;42162;51.958;5.426;2023-09-12T12:18:17;23.95;;;15.80;;
55762;SDS011;42162;51.958;5.426;2023-09-12T12:20:44;16.92;;;12.88;;
55762;SDS011;42162;51.958;5.426;2023-09-12T12:23:12;13.95;;;9.52;;
55762;SDS011;42162;51.958;5.426;2023-09-12T12:25:39;16.02;;;11.43;;
55762;SDS011;42162;51.958;5.426;2023-09-12T12:28:06;20.90;;;16.17;;
55762;SDS011;42162;51.958;5.426;2023-09-12T12:30:34;18.20;;;14.50;;
55762;SDS011;42162;51.958;5.426;2023-09-12T12:33:07;17.58;;;13.73;;
55762;SDS011;42162;51.958;5.426;2023-09-12T12:36:04;20.10;;;15.00;;
55762;SDS011;42162;51.958;5.426;2023-09-12T12:38:34;23.40;;;16.80;;
55762;SDS011;42162;51.958;5.426;2023-09-12T12:41:23;21.42;;;15.38;;
55762;SDS011;42162;51.958;5.426;2023-09-12T12:44:01;21.90;;;15.93;;
55762;SDS011;42162;51.958;5.426;2023-09-12T12:46:30;16.33;;;12.65;;
55762;SDS011;42162;51.958;5.426;2023-09-12T12:48:57;15.77;;;12.73;;
55762;SDS011;42162;51.958;5.426;2023-09-12T12:51:24;15.00;;;11.70;;
55762;SDS011;42162;51.958;5.426;2023-09-12T12:53:52;15.75;;;11.90;;
55762;SDS011;42162;51.958;5.426;2023-09-12T12:56:26;15.68;;;11.48;;
55762;SDS011;42162;51.958;5.426;2023-09-12T12:58:57;20.17;;;11.65;;
55762;SDS011;42162;51.958;5.426;2023-09-12T13:01:29;15.15;;;9.20;;
55762;SDS011;42162;51.958;5.426;2023-09-12T13:03:56;15.70;;;12.77;;
55762;SDS011;42162;51.958;5.426;2023-09-12T13:06:24;15.05;;;10.98;;
55762;SDS011;42162;51.958;5.426;2023-09-12T13:08:52;17.02;;;12.15;;
55762;SDS011;42162;51.958;5.426;2023-09-12T13:11:19;13.70;;;11.10;;
55762;SDS011;42162;51.958;5.426;2023-09-12T13:13:47;13.85;;;9.75;;
55762;SDS011;42162;51.958;5.426;2023-09-12T13:16:17;16.58;;;10.50;;
55762;SDS011;42162;51.958;5.426;2023-09-12T13:18:44;12.45;;;8.32;;
55762;SDS011;42162;51.958;5.426;2023-09-12T13:21:12;9.75;;;6.25;;
55762;SDS011;42162;51.958;5.426;2023-09-12T13:23:39;9.38;;;6.13;;
55762;SDS011;42162;51.958;5.426;2023-09-12T13:26:07;9.65;;;7.10;;
55762;SDS011;42162;51.958;5.426;2023-09-12T13:28:35;8.13;;;5.70;;
55762;SDS011;42162;51.958;5.426;2023-09-12T13:31:02;11.13;;;8.68;;
55762;SDS011;42162;51.958;5.426;2023-09-12T13:33:30;8.98;;;6.00;;
55762;SDS011;42162;51.958;5.426;2023-09-12T13:35:58;10.93;;;6.97;;
55762;SDS011;42162;51.958;5.426;2023-09-12T13:38:25;12.80;;;6.05;;
55762;SDS011;42162;51.958;5.426;2023-09-12T13:40:52;10.05;;;6.30;;
55762;SDS011;42162;51.958;5.426;2023-09-12T13:43:19;10.45;;;8.07;;
55762;SDS011;42162;51.958;5.426;2023-09-12T13:45:46;13.90;;;7.43;;
55762;SDS011;42162;51.958;5.426;2023-09-12T13:48:14;9.23;;;6.35;;
55762;SDS011;42162;51.958;5.426;2023-09-12T13:50:41;9.27;;;5.72;;
55762;SDS011;42162;51.958;5.426;2023-09-12T13:53:11;9.35;;;6.88;;
55762;SDS011;42162;51.958;5.426;2023-09-12T13:55:38;12.73;;;7.15;;
55762;SDS011;42162;51.958;5.426;2023-09-12T13:58:25;7.03;;;5.68;;
55762;SDS011;42162;51.958;5.426;2023-09-12T14:01:02;8.25;;;4.53;;
55762;SDS011;42162;51.958;5.426;2023-09-12T14:03:30;9.32;;;7.05;;
55762;SDS011;42162;51.958;5.426;2023-09-12T14:05:59;7.35;;;5.15;;
55762;SDS011;42162;51.958;5.426;2023-09-12T14:08:26;9.07;;;4.85;;
55762;SDS011;42162;51.958;5.426;2023-09-12T14:10:53;7.45;;;5.70;;
55762;SDS011;42162;51.958;5.426;2023-09-12T14:13:21;11.68;;;7.80;;
55762;SDS011;42162;51.958;5.426;2023-09-12T14:15:49;10.23;;;7.38;;
55762;SDS011;42162;51.958;5.426;2023-09-12T14:18:17;14.18;;;8.32;;
55762;SDS011;42162;51.958;5.426;2023-09-12T14:20:47;9.55;;;7.38;;
55762;SDS011;42162;51.958;5.426;2023-09-12T14:23:14;8.95;;;7.43;;
55762;SDS011;42162;51.958;5.426;2023-09-12T14:25:43;9.75;;;6.32;;
55762;SDS011;42162;51.958;5.426;2023-09-12T14:28:12;9.38;;;7.80;;
55762;SDS011;42162;51.958;5.426;2023-09-12T14:30:41;9.57;;;7.82;;
55762;SDS011;42162;51.958;5.426;2023-09-12T14:33:12;11.52;;;8.10;;
55762;SDS011;42162;51.958;5.426;2023-09-12T14:35:43;9.38;;;6.38;;
55762;SDS011;42162;51.958;5.426;2023-09-12T14:38:11;11.95;;;8.25;;
55762;SDS011;42162;51.958;5.426;2023-09-12T14:40:38;10.10;;;7.57;;
55762;SDS011;42162;51.958;5.426;2023-09-12T14:43:10;9.15;;;7.90;;
55762;SDS011;42162;51.958;5.426;2023-09-12T14:45:38;11.50;;;8.90;;
55762;SDS011;42162;51.958;5.426;2023-09-12T14:48:05;16.77;;;11.85;;
55762;SDS011;42162;51.958;5.426;2023-09-12T14:50:34;14.77;;;10.82;;
55762;SDS011;42162;51.958;5.426;2023-09-12T14:53:09;14.57;;;9.57;;
55762;SDS011;42162;51.958;5.426;2023-09-12T14:55:38;12.13;;;8.43;;
55762;SDS011;42162;51.958;5.426;2023-09-12T14:58:06;15.00;;;8.57;;
55762;SDS011;42162;51.958;5.426;2023-09-12T15:00:33;11.55;;;7.95;;